sensor_id;sensor_type;location;lat;lon;timestamp;P1;durP1;ratioP1;P2;durP2;ratioP2
47555;SDS011;33291;46.222;26.460;2023-11-19T00:01:35;7.30;;;4.50;;
47555;SDS011;33291;46.222;26.460;2023-11-19T00:04:00;6.55;;;4.43;;
47555;SDS011;33291;46.222;26.460;2023-11-19T00:06:26;8.05;;;3.97;;
47555;SDS011;33291;46.222;26.460;2023-11-19T00:08:51;7.72;;;4.30;;
47555;SDS011;33291;46.222;26.460;2023-11-19T00:11:17;6.65;;;3.08;;
47555;SDS011;33291;46.222;26.460;2023-11-19T00:13:42;10.48;;;4.15;;
47555;SDS011;33291;46.222;26.460;2023-11-19T00:16:08;5.63;;;3.78;;
47555;SDS011;33291;46.222;26.460;2023-11-19T00:18:35;6.43;;;3.75;;
47555;SDS011;33291;46.222;26.460;2023-11-19T00:21:01;9.07;;;4.10;;
47555;SDS011;33291;46.222;26.460;2023-11-19T00:23:27;7.20;;;3.90;;
47555;SDS011;33291;46.222;26.460;2023-11-19T00:25:53;10.45;;;4.72;;
47555;SDS011;33291;46.222;26.460;2023-11-19T00:28:18;6.95;;;3.90;;
47555;SDS011;33291;46.222;26.460;2023-11-19T00:30:44;6.13;;;3.53;;
47555;SDS011;33291;46.222;26.460;2023-11-19T00:33:09;7.43;;;3.58;;
47555;SDS011;33291;46.222;26.460;2023-11-19T00:35:35;5.30;;;3.45;;
47555;SDS011;33291;46.222;26.460;2023-11-19T00:38:00;4.97;;;3.17;;
47555;SDS011;33291;46.222;26.460;2023-11-19T00:40:27;4.95;;;3.08;;
47555;SDS011;33291;46.222;26.460;2023-11-19T00:42:53;5.75;;;3.67;;
47555;SDS011;33291;46.222;26.460;2023-11-19T00:45:19;7.78;;;3.58;;
47555;SDS011;33291;46.222;26.460;2023-11-19T00:47:44;7.00;;;3.83;;
47555;SDS011;33291;46.222;26.460;2023-11-19T00:50:10;8.27;;;3.53;;
47555;SDS011;33291;46.222;26.460;2023-11-19T00:52:36;9.82;;;4.30;;
47555;SDS011;33291;46.222;26.460;2023-11-19T00:55:02;6.90;;;3.55;;
47555;SDS011;33291;46.222;26.460;2023-11-19T00:57:29;4.85;;;3.17;;
47555;SDS011;33291;46.222;26.460;2023-11-19T00:59:55;6.00;;;3.38;;
47555;SDS011;33291;46.222;26.460;2023-11-19T01:02:20;8.90;;;4.00;;
47555;SDS011;33291;46.222;26.460;2023-11-19T01:04:46;7.85;;;3.92;;
47555;SDS011;33291;46.222;26.460;2023-11-19T01:07:11;8.85;;;4.63;;
47555;SDS011;33291;46.222;26.460;2023-11-19T01:09:37;5.00;;;3.38;;
47555;SDS011;33291;46.222;26.460;2023-11-19T01:12:03;4.88;;;3.38;;
47555;SDS011;33291;46.222;26.460;2023-11-19T01:14:29;6.55;;;3.70;;
47555;SDS011;33291;46.222;26.460;2023-11-19T01:16:55;5.07;;;2.75;;
47555;SDS011;33291;46.222;26.460;2023-11-19T01:19:21;4.55;;;3.15;;
47555;SDS011;33291;46.222;26.460;2023-11-19T01:21:48;6.45;;;3.22;;
47555;SDS011;33291;46.222;26.460;2023-11-19T01:24:14;5.05;;;3.28;;
47555;SDS011;33291;46.222;26.460;2023-11-19T01:26:39;5.43;;;2.90;;
47555;SDS011;33291;46.222;26.460;2023-11-19T01:29:10;5.35;;;3.22;;
47555;SDS011;33291;46.222;26.460;2023-11-19T01:31:45;5.47;;;2.85;;
47555;SDS011;33291;46.222;26.460;2023-11-19T01:34:12;5.90;;;2.97;;
47555;SDS011;33291;46.222;26.460;2023-11-19T01:36:37;4.97;;;2.80;;
47555;SDS011;33291;46.222;26.460;2023-11-19T01:39:04;5.43;;;3.10;;
47555;SDS011;33291;46.222;26.460;2023-11-19T01:41:33;7.65;;;3.63;;
47555;SDS011;33291;46.222;26.460;2023-11-19T01:44:00;6.15;;;3.33;;
47555;SDS011;33291;46.222;26.460;2023-11-19T01:46:26;4.13;;;2.60;;
47555;SDS011;33291;46.222;26.460;2023-11-19T01:48:52;8.45;;;3.30;;
47555;SDS011;33291;46.222;26.460;2023-11-19T01:51:19;5.95;;;3.35;;
47555;SDS011;33291;46.222;26.460;2023-11-19T01:53:46;7.65;;;3.45;;
47555;SDS011;33291;46.222;26.460;2023-11-19T01:56:13;6.25;;;3.90;;
47555;SDS011;33291;46.222;26.460;2023-11-19T01:58:41;6.75;;;3.70;;
47555;SDS011;33291;46.222;26.460;2023-11-19T02:01:08;6.55;;;3.78;;
47555;SDS011;33291;46.222;26.460;2023-11-19T02:03:34;7.40;;;4.13;;
47555;SDS011;33291;46.222;26.460;2023-11-19T02:06:00;6.65;;;3.80;;
47555;SDS011;33291;46.222;26.460;2023-11-19T02:08:26;6.75;;;3.70;;
47555;SDS011;33291;46.222;26.460;2023-11-19T02:10:51;7.45;;;4.18;;
47555;SDS011;33291;46.222;26.460;2023-11-19T02:13:20;8.85;;;4.45;;
47555;SDS011;33291;46.222;26.460;2023-11-19T02:15:46;7.65;;;3.90;;
47555;SDS011;33291;46.222;26.460;2023-11-19T02:18:26;6.18;;;3.83;;
47555;SDS011;33291;46.222;26.460;2023-11-19T02:20:58;11.57;;;5.00;;
47555;SDS011;33291;46.222;26.460;2023-11-19T02:23:27;8.70;;;4.32;;
47555;SDS011;33291;46.222;26.460;2023-11-19T02:28:36;7.97;;;4.18;;
47555;SDS011;33291;46.222;26.460;2023-11-19T02:31:02;8.60;;;4.32;;
47555;SDS011;33291;46.222;26.460;2023-11-19T02:33:35;7.43;;;3.95;;
47555;SDS011;33291;46.222;26.460;2023-11-19T02:36:01;9.85;;;4.32;;
47555;SDS011;33291;46.222;26.460;2023-11-19T02:38:29;9.60;;;5.47;;
47555;SDS011;33291;46.222;26.460;2023-11-19T02:40:56;6.40;;;3.55;;
47555;SDS011;33291;46.222;26.460;2023-11-19T02:43:22;7.53;;;4.40;;
47555;SDS011;33291;46.222;26.460;2023-11-19T02:45:47;7.57;;;4.57;;
47555;SDS011;33291;46.222;26.460;2023-11-19T02:48:13;6.82;;;3.83;;
47555;SDS011;33291;46.222;26.460;2023-11-19T02:50:41;8.70;;;4.38;;
47555;SDS011;33291;46.222;26.460;2023-11-19T02:53:07;8.23;;;4.28;;
47555;SDS011;33291;46.222;26.460;2023-11-19T02:55:33;6.70;;;4.22;;
47555;SDS011;33291;46.222;26.460;2023-11-19T02:58:03;8.88;;;4.43;;
47555;SDS011;33291;46.222;26.460;2023-11-19T03:00:35;7.13;;;4.55;;
47555;SDS011;33291;46.222;26.460;2023-11-19T03:03:01;8.32;;;3.97;;
47555;SDS011;33291;46.222;26.460;2023-11-19T03:05:42;7.15;;;4.22;;
47555;SDS011;33291;46.222;26.460;2023-11-19T03:08:09;6.32;;;3.85;;
47555;SDS011;33291;46.222;26.460;2023-11-19T03:10:35;6.25;;;4.30;;
47555;SDS011;33291;46.222;26.460;2023-11-19T03:13:01;7.88;;;4.47;;
47555;SDS011;33291;46.222;26.460;2023-11-19T03:15:27;8.77;;;4.15;;
47555;SDS011;33291;46.222;26.460;2023-11-19T03:17:52;8.13;;;4.40;;
47555;SDS011;33291;46.222;26.460;2023-11-19T03:20:18;8.82;;;4.45;;
47555;SDS011;33291;46.222;26.460;2023-11-19T03:22:43;6.57;;;4.05;;
47555;SDS011;33291;46.222;26.460;2023-11-19T03:25:09;6.47;;;4.35;;
47555;SDS011;33291;46.222;26.460;2023-11-19T03:27:38;8.25;;;4.88;;
47555;SDS011;33291;46.222;26.460;2023-11-19T03:30:06;8.02;;;3.85;;
47555;SDS011;33291;46.222;26.460;2023-11-19T03:32:34;7.70;;;4.10;;
47555;SDS011;33291;46.222;26.460;2023-11-19T03:35:00;6.38;;;4.28;;
47555;SDS011;33291;46.222;26.460;2023-11-19T03:37:32;7.00;;;3.90;;
47555;SDS011;33291;46.222;26.460;2023-11-19T03:39:58;7.70;;;4.18;;
47555;SDS011;33291;46.222;26.460;2023-11-19T03:42:27;5.82;;;3.67;;
47555;SDS011;33291;46.222;26.460;2023-11-19T03:44:55;8.55;;;4.32;;
47555;SDS011;33291;46.222;26.460;2023-11-19T03:47:21;7.30;;;4.10;;
47555;SDS011;33291;46.222;26.460;2023-11-19T03:49:50;7.55;;;4.03;;
47555;SDS011;33291;46.222;26.460;2023-11-19T03:52:16;8.75;;;4.47;;
47555;SDS011;33291;46.222;26.460;2023-11-19T03:54:42;5.53;;;3.72;;
47555;SDS011;33291;46.222;26.460;2023-11-19T03:57:08;10.35;;;4.70;;
47555;SDS011;33291;46.222;26.460;2023-11-19T03:59:35;6.93;;;4.20;;
47555;SDS011;33291;46.222;26.460;2023-11-19T04:02:01;8.25;;;4.40;;
47555;SDS011;33291;46.222;26.460;2023-11-19T04:04:27;6.15;;;3.67;;
47555;SDS011;33291;46.222;26.460;2023-11-19T04:06:54;9.40;;;4.55;;
47555;SDS011;33291;46.222;26.460;2023-11-19T04:09:20;9.65;;;4.57;;
47555;SDS011;33291;46.222;26.460;2023-11-19T04:11:45;6.20;;;4.00;;
47555;SDS011;33291;46.222;26.460;2023-11-19T04:14:12;8.75;;;4.93;;
47555;SDS011;33291;46.222;26.460;2023-11-19T04:16:38;7.47;;;3.85;;
47555;SDS011;33291;46.222;26.460;2023-11-19T04:19:04;9.20;;;4.70;;
47555;SDS011;33291;46.222;26.460;2023-11-19T04:21:31;7.68;;;4.30;;
47555;SDS011;33291;46.222;26.460;2023-11-19T04:23:57;6.63;;;4.32;;
47555;SDS011;33291;46.222;26.460;2023-11-19T04:26:22;17.02;;;6.97;;
47555;SDS011;33291;46.222;26.460;2023-11-19T04:28:48;10.82;;;5.40;;
47555;SDS011;33291;46.222;26.460;2023-11-19T04:31:14;9.20;;;4.93;;
47555;SDS011;33291;46.222;26.460;2023-11-19T04:33:41;8.23;;;4.72;;
47555;SDS011;33291;46.222;26.460;2023-11-19T04:36:07;7.03;;;3.90;;
47555;SDS011;33291;46.222;26.460;2023-11-19T04:38:33;7.93;;;4.15;;
47555;SDS011;33291;46.222;26.460;2023-11-19T04:40:59;7.72;;;4.70;;
47555;SDS011;33291;46.222;26.460;2023-11-19T04:43:25;7.47;;;4.88;;
47555;SDS011;33291;46.222;26.460;2023-11-19T04:45:51;8.98;;;5.28;;
47555;SDS011;33291;46.222;26.460;2023-11-19T04:48:16;10.40;;;5.68;;
47555;SDS011;33291;46.222;26.460;2023-11-19T04:50:42;6.90;;;4.40;;
47555;SDS011;33291;46.222;26.460;2023-11-19T04:53:07;8.40;;;4.75;;
47555;SDS011;33291;46.222;26.460;2023-11-19T04:55:33;7.22;;;4.15;;
47555;SDS011;33291;46.222;26.460;2023-11-19T04:57:58;8.00;;;4.57;;
47555;SDS011;33291;46.222;26.460;2023-11-19T05:00:24;9.02;;;5.25;;
47555;SDS011;33291;46.222;26.460;2023-11-19T05:02:49;9.02;;;5.43;;
47555;SDS011;33291;46.222;26.460;2023-11-19T05:05:15;7.75;;;5.57;;
47555;SDS011;33291;46.222;26.460;2023-11-19T05:07:41;8.77;;;4.72;;
47555;SDS011;33291;46.222;26.460;2023-11-19T05:10:06;7.60;;;4.93;;
47555;SDS011;33291;46.222;26.460;2023-11-19T05:12:32;13.35;;;6.70;;
47555;SDS011;33291;46.222;26.460;2023-11-19T05:14:58;17.20;;;8.68;;
47555;SDS011;33291;46.222;26.460;2023-11-19T05:17:23;13.27;;;7.13;;
47555;SDS011;33291;46.222;26.460;2023-11-19T05:19:49;12.43;;;6.95;;
47555;SDS011;33291;46.222;26.460;2023-11-19T05:22:14;17.25;;;8.80;;
47555;SDS011;33291;46.222;26.460;2023-11-19T05:24:40;22.77;;;10.77;;
47555;SDS011;33291;46.222;26.460;2023-11-19T05:27:06;19.50;;;8.60;;
47555;SDS011;33291;46.222;26.460;2023-11-19T05:29:32;9.25;;;5.60;;
47555;SDS011;33291;46.222;26.460;2023-11-19T05:31:58;11.18;;;5.57;;
47555;SDS011;33291;46.222;26.460;2023-11-19T05:34:24;11.80;;;6.18;;
47555;SDS011;33291;46.222;26.460;2023-11-19T05:36:50;12.52;;;5.65;;
47555;SDS011;33291;46.222;26.460;2023-11-19T05:39:16;14.35;;;7.28;;
47555;SDS011;33291;46.222;26.460;2023-11-19T05:41:43;9.48;;;5.18;;
47555;SDS011;33291;46.222;26.460;2023-11-19T05:44:09;11.35;;;6.05;;
47555;SDS011;33291;46.222;26.460;2023-11-19T05:46:34;11.13;;;6.03;;
47555;SDS011;33291;46.222;26.460;2023-11-19T05:49:05;10.68;;;6.10;;
47555;SDS011;33291;46.222;26.460;2023-11-19T05:51:30;14.15;;;7.50;;
47555;SDS011;33291;46.222;26.460;2023-11-19T05:53:56;11.30;;;5.95;;
47555;SDS011;33291;46.222;26.460;2023-11-19T05:56:22;11.82;;;6.95;;
47555;SDS011;33291;46.222;26.460;2023-11-19T05:58:48;13.63;;;7.15;;
47555;SDS011;33291;46.222;26.460;2023-11-19T06:01:14;17.60;;;9.23;;
47555;SDS011;33291;46.222;26.460;2023-11-19T06:03:40;16.98;;;7.60;;
47555;SDS011;33291;46.222;26.460;2023-11-19T06:06:05;13.05;;;6.82;;
47555;SDS011;33291;46.222;26.460;2023-11-19T06:08:31;17.08;;;8.55;;
47555;SDS011;33291;46.222;26.460;2023-11-19T06:10:57;12.48;;;7.97;;
47555;SDS011;33291;46.222;26.460;2023-11-19T06:13:22;17.90;;;10.43;;
47555;SDS011;33291;46.222;26.460;2023-11-19T06:15:48;16.20;;;8.25;;
47555;SDS011;33291;46.222;26.460;2023-11-19T06:18:15;14.52;;;8.43;;
47555;SDS011;33291;46.222;26.460;2023-11-19T06:20:41;20.10;;;12.00;;
47555;SDS011;33291;46.222;26.460;2023-11-19T06:23:07;22.08;;;13.52;;
47555;SDS011;33291;46.222;26.460;2023-11-19T06:25:32;17.95;;;9.82;;
47555;SDS011;33291;46.222;26.460;2023-11-19T06:27:58;18.52;;;9.82;;
47555;SDS011;33291;46.222;26.460;2023-11-19T06:30:24;17.85;;;9.70;;
47555;SDS011;33291;46.222;26.460;2023-11-19T06:32:50;21.63;;;10.27;;
47555;SDS011;33291;46.222;26.460;2023-11-19T06:35:16;17.20;;;9.52;;
47555;SDS011;33291;46.222;26.460;2023-11-19T06:37:42;17.08;;;9.15;;
47555;SDS011;33291;46.222;26.460;2023-11-19T06:40:08;19.90;;;9.90;;
47555;SDS011;33291;46.222;26.460;2023-11-19T06:42:34;17.17;;;10.38;;
47555;SDS011;33291;46.222;26.460;2023-11-19T06:45:00;16.70;;;9.32;;
47555;SDS011;33291;46.222;26.460;2023-11-19T06:47:28;17.95;;;9.80;;
47555;SDS011;33291;46.222;26.460;2023-11-19T06:49:54;17.60;;;10.27;;
47555;SDS011;33291;46.222;26.460;2023-11-19T06:52:20;18.05;;;9.27;;
47555;SDS011;33291;46.222;26.460;2023-11-19T06:54:46;17.67;;;9.52;;
47555;SDS011;33291;46.222;26.460;2023-11-19T06:57:11;17.17;;;9.73;;
47555;SDS011;33291;46.222;26.460;2023-11-19T06:59:37;17.90;;;10.15;;
47555;SDS011;33291;46.222;26.460;2023-11-19T07:02:04;16.98;;;8.95;;
47555;SDS011;33291;46.222;26.460;2023-11-19T07:04:30;16.83;;;9.02;;
47555;SDS011;33291;46.222;26.460;2023-11-19T07:06:56;16.30;;;9.02;;
47555;SDS011;33291;46.222;26.460;2023-11-19T07:09:21;15.95;;;9.43;;
47555;SDS011;33291;46.222;26.460;2023-11-19T07:11:48;16.70;;;9.80;;
47555;SDS011;33291;46.222;26.460;2023-11-19T07:14:15;18.15;;;9.88;;
47555;SDS011;33291;46.222;26.460;2023-11-19T07:16:41;15.30;;;9.32;;
47555;SDS011;33291;46.222;26.460;2023-11-19T07:19:07;18.98;;;9.70;;
47555;SDS011;33291;46.222;26.460;2023-11-19T07:21:33;15.50;;;8.82;;
47555;SDS011;33291;46.222;26.460;2023-11-19T07:23:59;16.50;;;9.20;;
47555;SDS011;33291;46.222;26.460;2023-11-19T07:26:24;13.73;;;8.68;;
47555;SDS011;33291;46.222;26.460;2023-11-19T07:28:50;16.00;;;9.02;;
47555;SDS011;33291;46.222;26.460;2023-11-19T07:31:16;16.45;;;9.63;;
47555;SDS011;33291;46.222;26.460;2023-11-19T07:33:44;24.75;;;12.93;;
47555;SDS011;33291;46.222;26.460;2023-11-19T07:36:10;27.13;;;13.45;;
47555;SDS011;33291;46.222;26.460;2023-11-19T07:38:36;26.60;;;13.98;;
47555;SDS011;33291;46.222;26.460;2023-11-19T07:41:03;20.38;;;10.18;;
47555;SDS011;33291;46.222;26.460;2023-11-19T07:43:30;14.57;;;8.02;;
47555;SDS011;33291;46.222;26.460;2023-11-19T07:45:55;15.70;;;9.23;;
47555;SDS011;33291;46.222;26.460;2023-11-19T07:48:21;16.25;;;9.18;;
47555;SDS011;33291;46.222;26.460;2023-11-19T07:50:51;17.10;;;9.68;;
47555;SDS011;33291;46.222;26.460;2023-11-19T07:53:18;18.30;;;9.90;;
47555;SDS011;33291;46.222;26.460;2023-11-19T07:55:44;18.58;;;10.50;;
47555;SDS011;33291;46.222;26.460;2023-11-19T07:58:10;18.67;;;9.60;;
47555;SDS011;33291;46.222;26.460;2023-11-19T08:00:36;12.13;;;7.45;;
47555;SDS011;33291;46.222;26.460;2023-11-19T08:03:02;13.23;;;7.75;;
47555;SDS011;33291;46.222;26.460;2023-11-19T08:05:29;22.02;;;11.57;;
47555;SDS011;33291;46.222;26.460;2023-11-19T08:07:54;17.33;;;9.35;;
47555;SDS011;33291;46.222;26.460;2023-11-19T08:10:20;16.63;;;8.85;;
47555;SDS011;33291;46.222;26.460;2023-11-19T08:12:46;24.13;;;11.27;;
47555;SDS011;33291;46.222;26.460;2023-11-19T08:15:12;16.50;;;9.50;;
47555;SDS011;33291;46.222;26.460;2023-11-19T08:17:37;18.10;;;8.90;;
47555;SDS011;33291;46.222;26.460;2023-11-19T08:20:03;18.33;;;9.50;;
47555;SDS011;33291;46.222;26.460;2023-11-19T08:22:30;18.27;;;9.88;;
47555;SDS011;33291;46.222;26.460;2023-11-19T08:24:56;14.35;;;8.10;;
47555;SDS011;33291;46.222;26.460;2023-11-19T08:27:21;23.35;;;11.70;;
47555;SDS011;33291;46.222;26.460;2023-11-19T08:29:53;40.10;;;18.15;;
47555;SDS011;33291;46.222;26.460;2023-11-19T08:32:22;21.85;;;10.93;;
47555;SDS011;33291;46.222;26.460;2023-11-19T08:34:50;21.50;;;11.93;;
47555;SDS011;33291;46.222;26.460;2023-11-19T08:37:16;29.02;;;14.00;;
47555;SDS011;33291;46.222;26.460;2023-11-19T08:39:45;14.13;;;7.57;;
47555;SDS011;33291;46.222;26.460;2023-11-19T08:42:11;15.05;;;8.65;;
47555;SDS011;33291;46.222;26.460;2023-11-19T08:44:37;13.70;;;8.13;;
47555;SDS011;33291;46.222;26.460;2023-11-19T08:47:02;12.40;;;7.63;;
47555;SDS011;33291;46.222;26.460;2023-11-19T08:49:29;12.02;;;7.18;;
47555;SDS011;33291;46.222;26.460;2023-11-19T08:51:54;15.02;;;7.80;;
47555;SDS011;33291;46.222;26.460;2023-11-19T08:54:20;32.35;;;15.70;;
47555;SDS011;33291;46.222;26.460;2023-11-19T08:56:46;36.90;;;19.75;;
47555;SDS011;33291;46.222;26.460;2023-11-19T08:59:12;22.48;;;12.10;;
47555;SDS011;33291;46.222;26.460;2023-11-19T09:01:37;18.23;;;9.80;;
47555;SDS011;33291;46.222;26.460;2023-11-19T09:04:03;11.38;;;7.43;;
47555;SDS011;33291;46.222;26.460;2023-11-19T09:06:29;27.70;;;15.45;;
47555;SDS011;33291;46.222;26.460;2023-11-19T09:08:55;14.30;;;7.70;;
47555;SDS011;33291;46.222;26.460;2023-11-19T09:11:25;12.65;;;8.25;;
47555;SDS011;33291;46.222;26.460;2023-11-19T09:13:51;18.08;;;11.02;;
47555;SDS011;33291;46.222;26.460;2023-11-19T09:16:16;12.75;;;7.28;;
47555;SDS011;33291;46.222;26.460;2023-11-19T09:18:42;11.98;;;6.13;;
47555;SDS011;33291;46.222;26.460;2023-11-19T09:21:07;8.75;;;5.35;;
47555;SDS011;33291;46.222;26.460;2023-11-19T09:23:33;7.43;;;4.38;;
47555;SDS011;33291;46.222;26.460;2023-11-19T09:26:04;10.73;;;6.10;;
47555;SDS011;33291;46.222;26.460;2023-11-19T09:28:33;9.13;;;5.00;;
47555;SDS011;33291;46.222;26.460;2023-11-19T09:30:59;7.60;;;4.68;;
47555;SDS011;33291;46.222;26.460;2023-11-19T09:33:24;10.60;;;5.70;;
47555;SDS011;33291;46.222;26.460;2023-11-19T09:35:50;8.60;;;5.78;;
47555;SDS011;33291;46.222;26.460;2023-11-19T09:38:16;8.45;;;5.25;;
47555;SDS011;33291;46.222;26.460;2023-11-19T09:40:42;6.18;;;4.05;;
47555;SDS011;33291;46.222;26.460;2023-11-19T09:43:07;8.10;;;5.13;;
47555;SDS011;33291;46.222;26.460;2023-11-19T09:45:37;8.88;;;5.65;;
47555;SDS011;33291;46.222;26.460;2023-11-19T09:48:17;7.35;;;4.32;;
47555;SDS011;33291;46.222;26.460;2023-11-19T09:50:47;6.82;;;4.15;;
47555;SDS011;33291;46.222;26.460;2023-11-19T09:53:13;18.25;;;10.82;;
47555;SDS011;33291;46.222;26.460;2023-11-19T09:55:40;16.95;;;10.82;;
47555;SDS011;33291;46.222;26.460;2023-11-19T09:58:06;13.45;;;8.25;;
47555;SDS011;33291;46.222;26.460;2023-11-19T10:00:32;11.05;;;6.97;;
47555;SDS011;33291;46.222;26.460;2023-11-19T10:02:59;29.38;;;16.38;;
47555;SDS011;33291;46.222;26.460;2023-11-19T10:05:25;8.18;;;4.30;;
47555;SDS011;33291;46.222;26.460;2023-11-19T10:07:51;7.85;;;4.95;;
47555;SDS011;33291;46.222;26.460;2023-11-19T10:10:20;6.25;;;3.53;;
47555;SDS011;33291;46.222;26.460;2023-11-19T10:12:46;17.15;;;11.38;;
47555;SDS011;33291;46.222;26.460;2023-11-19T10:15:21;18.10;;;11.88;;
47555;SDS011;33291;46.222;26.460;2023-11-19T10:17:49;15.35;;;10.23;;
47555;SDS011;33291;46.222;26.460;2023-11-19T10:20:15;12.55;;;8.73;;
47555;SDS011;33291;46.222;26.460;2023-11-19T10:22:41;12.45;;;8.25;;
47555;SDS011;33291;46.222;26.460;2023-11-19T10:25:22;8.65;;;4.60;;
47555;SDS011;33291;46.222;26.460;2023-11-19T10:27:52;7.85;;;4.20;;
47555;SDS011;33291;46.222;26.460;2023-11-19T10:30:27;8.48;;;4.07;;
47555;SDS011;33291;46.222;26.460;2023-11-19T10:33:13;8.95;;;5.00;;
47555;SDS011;33291;46.222;26.460;2023-11-19T10:35:58;9.50;;;5.57;;
47555;SDS011;33291;46.222;26.460;2023-11-19T10:38:24;10.77;;;5.13;;
47555;SDS011;33291;46.222;26.460;2023-11-19T10:40:50;10.15;;;4.68;;
47555;SDS011;33291;46.222;26.460;2023-11-19T10:43:17;9.23;;;4.90;;
47555;SDS011;33291;46.222;26.460;2023-11-19T10:45:43;7.57;;;4.30;;
47555;SDS011;33291;46.222;26.460;2023-11-19T10:48:08;8.93;;;4.97;;
47555;SDS011;33291;46.222;26.460;2023-11-19T10:50:38;14.27;;;8.40;;
47555;SDS011;33291;46.222;26.460;2023-11-19T10:53:05;7.70;;;4.65;;
47555;SDS011;33291;46.222;26.460;2023-11-19T10:55:34;8.45;;;4.25;;
47555;SDS011;33291;46.222;26.460;2023-11-19T10:58:01;7.20;;;4.45;;
47555;SDS011;33291;46.222;26.460;2023-11-19T11:00:29;9.45;;;5.22;;
47555;SDS011;33291;46.222;26.460;2023-11-19T11:03:01;6.18;;;3.47;;
47555;SDS011;33291;46.222;26.460;2023-11-19T11:05:35;9.88;;;6.00;;
47555;SDS011;33291;46.222;26.460;2023-11-19T11:08:04;15.20;;;9.50;;
47555;SDS011;33291;46.222;26.460;2023-11-19T11:10:32;6.10;;;3.28;;
47555;SDS011;33291;46.222;26.460;2023-11-19T11:13:03;6.05;;;3.42;;
47555;SDS011;33291;46.222;26.460;2023-11-19T11:15:29;7.10;;;4.53;;
47555;SDS011;33291;46.222;26.460;2023-11-19T11:17:57;14.98;;;8.88;;
47555;SDS011;33291;46.222;26.460;2023-11-19T11:20:31;17.02;;;10.20;;
47555;SDS011;33291;46.222;26.460;2023-11-19T11:31:29;7.35;;;4.45;;
47555;SDS011;33291;46.222;26.460;2023-11-19T11:36:36;12.25;;;6.05;;
47555;SDS011;33291;46.222;26.460;2023-11-19T11:39:20;6.72;;;3.95;;
47555;SDS011;33291;46.222;26.460;2023-11-19T11:42:18;9.98;;;3.85;;
47555;SDS011;33291;46.222;26.460;2023-11-19T11:45:06;8.38;;;4.95;;
47555;SDS011;33291;46.222;26.460;2023-11-19T11:55:26;28.17;;;16.38;;
47555;SDS011;33291;46.222;26.460;2023-11-19T11:58:05;18.33;;;9.57;;
47555;SDS011;33291;46.222;26.460;2023-11-19T12:00:38;9.48;;;4.78;;
47555;SDS011;33291;46.222;26.460;2023-11-19T12:05:31;6.78;;;3.65;;
47555;SDS011;33291;46.222;26.460;2023-11-19T12:08:03;6.70;;;3.60;;
47555;SDS011;33291;46.222;26.460;2023-11-19T12:10:32;10.75;;;6.50;;
47555;SDS011;33291;46.222;26.460;2023-11-19T12:13:04;13.48;;;9.07;;
47555;SDS011;33291;46.222;26.460;2023-11-19T12:15:32;9.52;;;6.03;;
47555;SDS011;33291;46.222;26.460;2023-11-19T12:17:58;8.07;;;4.63;;
47555;SDS011;33291;46.222;26.460;2023-11-19T12:20:24;5.40;;;3.88;;
47555;SDS011;33291;46.222;26.460;2023-11-19T12:22:51;6.55;;;4.13;;
47555;SDS011;33291;46.222;26.460;2023-11-19T12:25:17;10.60;;;5.75;;
47555;SDS011;33291;46.222;26.460;2023-11-19T12:27:45;10.00;;;5.70;;
47555;SDS011;33291;46.222;26.460;2023-11-19T12:30:11;16.60;;;10.10;;
47555;SDS011;33291;46.222;26.460;2023-11-19T12:32:37;13.27;;;7.32;;
47555;SDS011;33291;46.222;26.460;2023-11-19T12:35:04;9.95;;;5.35;;
47555;SDS011;33291;46.222;26.460;2023-11-19T12:37:29;9.60;;;5.22;;
47555;SDS011;33291;46.222;26.460;2023-11-19T12:39:56;9.90;;;5.88;;
47555;SDS011;33291;46.222;26.460;2023-11-19T12:42:44;12.05;;;6.90;;
47555;SDS011;33291;46.222;26.460;2023-11-19T12:45:10;14.98;;;8.60;;
47555;SDS011;33291;46.222;26.460;2023-11-19T12:47:36;14.30;;;7.40;;
47555;SDS011;33291;46.222;26.460;2023-11-19T12:50:02;11.80;;;5.78;;
47555;SDS011;33291;46.222;26.460;2023-11-19T12:52:29;10.98;;;6.25;;
47555;SDS011;33291;46.222;26.460;2023-11-19T12:54:55;6.05;;;3.70;;
47555;SDS011;33291;46.222;26.460;2023-11-19T12:57:20;4.57;;;2.35;;
47555;SDS011;33291;46.222;26.460;2023-11-19T12:59:55;6.07;;;3.47;;
47555;SDS011;33291;46.222;26.460;2023-11-19T13:02:32;23.58;;;9.70;;
47555;SDS011;33291;46.222;26.460;2023-11-19T13:08:01;5.43;;;3.60;;
47555;SDS011;33291;46.222;26.460;2023-11-19T13:10:28;5.75;;;3.47;;
47555;SDS011;33291;46.222;26.460;2023-11-19T13:15:29;6.43;;;4.22;;
47555;SDS011;33291;46.222;26.460;2023-11-19T13:17:54;5.03;;;3.40;;
47555;SDS011;33291;46.222;26.460;2023-11-19T13:20:20;7.30;;;3.33;;
47555;SDS011;33291;46.222;26.460;2023-11-19T13:22:59;7.05;;;3.85;;
47555;SDS011;33291;46.222;26.460;2023-11-19T13:25:25;4.57;;;3.00;;
47555;SDS011;33291;46.222;26.460;2023-11-19T13:27:52;6.32;;;4.18;;
47555;SDS011;33291;46.222;26.460;2023-11-19T13:30:18;10.75;;;4.35;;
47555;SDS011;33291;46.222;26.460;2023-11-19T13:32:44;7.20;;;4.13;;
47555;SDS011;33291;46.222;26.460;2023-11-19T13:35:11;5.55;;;3.55;;
47555;SDS011;33291;46.222;26.460;2023-11-19T13:37:38;8.10;;;3.42;;
47555;SDS011;33291;46.222;26.460;2023-11-19T13:40:04;6.30;;;3.58;;
47555;SDS011;33291;46.222;26.460;2023-11-19T13:42:32;6.03;;;3.55;;
47555;SDS011;33291;46.222;26.460;2023-11-19T13:44:58;4.50;;;2.90;;
47555;SDS011;33291;46.222;26.460;2023-11-19T13:47:23;4.10;;;2.60;;
47555;SDS011;33291;46.222;26.460;2023-11-19T13:49:49;6.65;;;3.00;;
47555;SDS011;33291;46.222;26.460;2023-11-19T13:52:15;11.23;;;4.63;;
47555;SDS011;33291;46.222;26.460;2023-11-19T13:54:40;10.48;;;6.60;;
47555;SDS011;33291;46.222;26.460;2023-11-19T13:57:06;24.40;;;10.50;;
47555;SDS011;33291;46.222;26.460;2023-11-19T13:59:31;9.52;;;4.38;;
47555;SDS011;33291;46.222;26.460;2023-11-19T14:01:58;3.90;;;2.92;;
47555;SDS011;33291;46.222;26.460;2023-11-19T14:04:23;6.85;;;3.45;;
47555;SDS011;33291;46.222;26.460;2023-11-19T14:06:49;16.48;;;7.90;;
47555;SDS011;33291;46.222;26.460;2023-11-19T14:09:14;25.08;;;12.00;;
47555;SDS011;33291;46.222;26.460;2023-11-19T14:11:40;30.33;;;15.32;;
47555;SDS011;33291;46.222;26.460;2023-11-19T14:14:05;11.68;;;5.28;;
47555;SDS011;33291;46.222;26.460;2023-11-19T14:16:31;7.95;;;3.92;;
47555;SDS011;33291;46.222;26.460;2023-11-19T14:18:57;4.22;;;1.70;;
47555;SDS011;33291;46.222;26.460;2023-11-19T14:21:22;7.53;;;3.72;;
47555;SDS011;33291;46.222;26.460;2023-11-19T14:23:50;11.57;;;5.82;;
47555;SDS011;33291;46.222;26.460;2023-11-19T14:26:15;6.97;;;3.97;;
47555;SDS011;33291;46.222;26.460;2023-11-19T14:28:40;7.95;;;4.70;;
47555;SDS011;33291;46.222;26.460;2023-11-19T14:31:06;11.80;;;5.78;;
47555;SDS011;33291;46.222;26.460;2023-11-19T14:33:31;12.00;;;6.75;;
47555;SDS011;33291;46.222;26.460;2023-11-19T14:35:59;13.23;;;7.28;;
47555;SDS011;33291;46.222;26.460;2023-11-19T14:38:25;13.35;;;5.57;;
47555;SDS011;33291;46.222;26.460;2023-11-19T14:40:51;11.23;;;5.90;;
47555;SDS011;33291;46.222;26.460;2023-11-19T14:43:16;69.82;;;25.65;;
47555;SDS011;33291;46.222;26.460;2023-11-19T14:45:42;26.23;;;12.45;;
47555;SDS011;33291;46.222;26.460;2023-11-19T14:48:07;17.15;;;7.38;;
47555;SDS011;33291;46.222;26.460;2023-11-19T14:50:32;11.07;;;5.57;;
47555;SDS011;33291;46.222;26.460;2023-11-19T14:52:58;13.70;;;6.38;;
47555;SDS011;33291;46.222;26.460;2023-11-19T14:55:23;7.40;;;3.97;;
47555;SDS011;33291;46.222;26.460;2023-11-19T14:57:49;14.13;;;6.75;;